createdAt,value
2023-05-22T00:00:44.764Z,0.47
2023-05-22T00:03:14.381Z,0.60
2023-05-22T00:05:45.620Z,0.47
2023-05-22T00:08:15.213Z,0.68
2023-05-22T00:10:45.680Z,0.70
2023-05-22T00:13:15.283Z,0.50
2023-05-22T00:15:44.829Z,0.30
2023-05-22T00:18:15.274Z,0.80
2023-05-22T00:20:46.690Z,0.75
2023-05-22T00:23:17.524Z,1.10
2023-05-22T00:25:47.172Z,0.80
2023-05-22T00:28:16.758Z,0.80
2023-05-22T00:30:46.610Z,1.20
2023-05-22T00:33:16.415Z,1.38
2023-05-22T00:35:47.649Z,0.80
2023-05-22T00:38:32.602Z,0.73
2023-05-22T00:41:03.603Z,1.30
2023-05-22T00:43:33.570Z,1.20
2023-05-22T00:49:31.920Z,0.80
2023-05-22T00:52:01.629Z,1.02
2023-05-22T00:54:32.928Z,1.42
2023-05-22T00:57:03.804Z,1.05
2023-05-22T00:59:34.168Z,1.55
2023-05-22T01:02:04.341Z,0.95
2023-05-22T01:04:35.617Z,1.48
2023-05-22T01:07:06.324Z,1.23
2023-05-22T01:09:36.043Z,1.00
2023-05-22T01:12:20.487Z,1.48
2023-05-22T01:15:00.320Z,1.40
2023-05-22T01:17:41.129Z,1.48
2023-05-22T01:20:20.324Z,1.33
2023-05-22T01:23:54.427Z,1.40
2023-05-22T01:27:18.485Z,1.35
2023-05-22T01:30:01.477Z,2.03
2023-05-22T01:32:36.741Z,1.33
2023-05-22T01:35:12.348Z,1.65
2023-05-22T01:37:42.831Z,1.50
2023-05-22T01:40:14.459Z,1.85
2023-05-22T01:42:44.178Z,0.88
2023-05-22T01:45:14.474Z,1.10
2023-05-22T01:47:45.827Z,2.03
2023-05-22T01:50:16.448Z,1.40
2023-05-22T01:52:58.025Z,1.17
2023-05-22T01:55:36.580Z,1.65
2023-05-22T01:58:19.017Z,1.60
2023-05-22T02:00:49.689Z,1.52
2023-05-22T02:03:25.042Z,1.10
2023-05-22T02:05:57.971Z,1.77
2023-05-22T02:08:28.963Z,1.27
2023-05-22T02:11:00.485Z,1.15
2023-05-22T02:13:30.679Z,1.58
2023-05-22T02:16:02.284Z,1.73
2023-05-22T02:18:33.420Z,1.57
2023-05-22T02:21:06.094Z,1.13
2023-05-22T02:23:36.104Z,1.85
2023-05-22T02:26:06.311Z,1.10
2023-05-22T02:28:36.165Z,1.70
2023-05-22T02:31:05.920Z,1.70
2023-05-22T02:33:37.057Z,1.15
2023-05-22T02:36:11.336Z,1.63
2023-05-22T02:38:41.173Z,1.48
2023-05-22T02:41:10.938Z,1.40
2023-05-22T02:43:40.725Z,1.13
2023-05-22T02:46:10.294Z,1.25
2023-05-22T02:48:41.359Z,1.38
2023-05-22T02:51:12.045Z,1.67
2023-05-22T02:53:41.955Z,1.08
2023-05-22T02:56:12.384Z,1.17
2023-05-22T02:58:42.179Z,1.00
2023-05-22T03:01:12.005Z,1.30
2023-05-22T03:03:44.117Z,1.00
2023-05-22T03:06:13.961Z,0.85
2023-05-22T03:08:44.661Z,1.30
2023-05-22T03:11:14.272Z,0.98
2023-05-22T03:13:43.835Z,1.17
2023-05-22T03:16:13.505Z,0.82
2023-05-22T03:18:44.757Z,0.77
2023-05-22T03:21:14.608Z,0.70
2023-05-22T03:23:46.442Z,1.80
2023-05-22T03:26:16.209Z,1.60
2023-05-22T03:28:48.792Z,1.00
2023-05-22T03:31:18.828Z,0.95
2023-05-22T03:33:50.137Z,1.10
2023-05-22T03:36:21.633Z,1.13
2023-05-22T03:38:51.339Z,0.93
2023-05-22T03:41:21.531Z,0.65
2023-05-22T03:43:51.054Z,1.38
2023-05-22T03:46:20.794Z,1.27
2023-05-22T03:50:31.823Z,1.08
2023-05-22T03:53:01.472Z,1.33
2023-05-22T03:55:31.917Z,1.38
2023-05-22T03:58:01.559Z,0.90
2023-05-22T04:00:32.085Z,0.65
2023-05-22T04:03:01.826Z,1.00
2023-05-22T04:05:33.624Z,0.98
2023-05-22T04:08:03.073Z,0.77
2023-05-22T04:10:32.456Z,0.95
2023-05-22T04:13:02.313Z,0.80
2023-05-22T04:15:34.143Z,0.68
2023-05-22T04:18:03.805Z,0.93
2023-05-22T04:20:34.916Z,0.80
2023-05-22T04:23:04.484Z,0.70
2023-05-22T04:25:34.667Z,0.55
2023-05-22T04:28:04.728Z,0.82
2023-05-22T04:30:34.983Z,0.80
2023-05-22T04:33:05.807Z,0.70
2023-05-22T04:35:37.657Z,0.52
2023-05-22T04:38:07.136Z,0.60
2023-05-22T04:40:38.358Z,0.85
2023-05-22T04:43:08.750Z,1.00
2023-05-22T04:45:38.276Z,0.63
2023-05-22T04:48:08.640Z,0.43
2023-05-22T04:50:40.019Z,0.77
2023-05-22T04:53:09.754Z,0.50
2023-05-22T04:55:40.117Z,0.90
2023-05-22T04:58:09.941Z,1.23
2023-05-22T05:00:39.942Z,1.05
2023-05-22T05:03:12.013Z,1.13
2023-05-22T05:05:43.258Z,1.45
2023-05-22T05:08:12.852Z,0.95
2023-05-22T05:10:42.565Z,0.90
2023-05-22T05:13:12.441Z,1.13
2023-05-22T05:15:42.346Z,1.25
2023-05-22T05:18:12.610Z,1.30
2023-05-22T05:20:43.773Z,1.27
2023-05-22T05:23:13.385Z,1.05
2023-05-22T05:25:42.932Z,0.93
2023-05-22T05:28:13.116Z,1.48
2023-05-22T05:30:43.260Z,1.80
2023-05-22T05:33:12.836Z,1.60
2023-05-22T05:35:44.296Z,1.45
2023-05-22T05:38:13.938Z,1.10
2023-05-22T05:40:44.010Z,1.70
2023-05-22T05:43:15.424Z,1.80
2023-05-22T05:45:45.355Z,1.70
2023-05-22T05:48:15.056Z,1.58
2023-05-22T05:50:45.993Z,1.30
2023-05-22T05:53:15.744Z,1.70
2023-05-22T05:55:45.450Z,1.48
2023-05-22T05:58:14.946Z,1.27
2023-05-22T06:00:44.420Z,1.20
2023-05-22T06:03:14.070Z,1.35
2023-05-22T06:05:46.201Z,1.52
2023-05-22T06:08:15.921Z,1.30
2023-05-22T06:10:45.517Z,1.45
2023-05-22T06:13:14.986Z,1.15
2023-05-22T06:15:44.503Z,0.95
2023-05-22T06:18:14.065Z,1.58
2023-05-22T06:20:44.991Z,1.27
2023-05-22T06:23:14.446Z,1.38
2023-05-22T06:25:44.007Z,1.67
2023-05-22T06:28:13.867Z,1.63
2023-05-22T06:30:43.602Z,1.60
2023-05-22T06:33:14.800Z,1.55
2023-05-22T06:35:46.170Z,1.05
2023-05-22T06:38:15.610Z,2.03
2023-05-22T06:40:45.149Z,1.58
2023-05-22T06:43:14.584Z,1.95
2023-05-22T06:45:44.042Z,1.35
2023-05-22T06:50:33.295Z,2.00
2023-05-22T06:53:02.996Z,1.42
2023-05-22T06:55:32.802Z,1.60
2023-05-22T06:58:02.601Z,1.42
2023-05-22T07:00:32.329Z,1.42
2023-05-22T07:03:02.238Z,1.58
2023-05-22T07:05:34.911Z,1.85
2023-05-22T07:08:04.549Z,1.48
2023-05-22T07:10:34.193Z,1.55
2023-05-22T07:13:04.356Z,1.10
2023-05-22T07:15:33.818Z,1.20
2023-05-22T07:18:03.507Z,1.08
2023-05-22T07:20:34.609Z,1.10
2023-05-22T07:23:04.191Z,1.40
2023-05-22T07:25:33.806Z,0.80
2023-05-22T07:28:08.916Z,1.50
2023-05-22T07:30:39.937Z,1.20
2023-05-22T07:33:10.061Z,1.13
2023-05-22T07:35:41.126Z,1.25
2023-05-22T07:38:10.659Z,1.10
2023-05-22T07:40:40.658Z,1.48
2023-05-22T07:43:10.480Z,1.25
2023-05-22T07:45:40.370Z,1.60
2023-05-22T07:48:10.082Z,0.98
2023-05-22T07:50:44.993Z,1.15
2023-05-22T07:53:14.442Z,1.58
2023-05-22T07:55:44.063Z,1.40
2023-05-22T07:58:14.878Z,1.40
2023-05-22T08:00:44.511Z,1.30
2023-05-22T08:03:14.182Z,1.52
2023-05-22T08:05:45.879Z,1.42
2023-05-22T08:08:15.728Z,1.17
2023-05-22T08:11:01.855Z,1.40
2023-05-22T08:13:32.639Z,1.10
2023-05-22T08:16:02.536Z,1.23
2023-05-22T08:18:32.186Z,1.20
2023-05-22T08:21:03.271Z,2.72
2023-05-22T08:23:32.998Z,1.55
2023-05-22T08:26:02.480Z,1.58
2023-05-22T08:28:31.884Z,1.50
2023-05-22T08:31:01.289Z,1.60
2023-05-22T08:33:30.822Z,1.00
2023-05-22T08:36:02.153Z,1.52
2023-05-22T08:38:31.826Z,1.30
2023-05-22T08:41:01.535Z,1.80
2023-05-22T08:43:31.706Z,1.80
2023-05-22T08:46:06.305Z,1.27
2023-05-22T08:48:36.355Z,1.52
2023-05-22T08:51:08.213Z,1.33
2023-05-22T08:53:39.276Z,1.30
2023-05-22T08:56:10.285Z,1.83
2023-05-22T08:58:40.869Z,1.83
2023-05-22T09:01:11.306Z,1.60
2023-05-22T09:05:31.784Z,1.30
2023-05-22T09:08:15.882Z,1.40
2023-05-22T09:10:49.169Z,1.80
2023-05-22T09:13:28.406Z,1.48
2023-05-22T09:16:01.977Z,1.98
2023-05-22T09:18:32.017Z,2.33
2023-05-22T09:21:08.873Z,1.88
2023-05-22T09:23:44.485Z,1.80
2023-05-22T09:26:14.078Z,1.90
2023-05-22T09:28:43.847Z,2.03
2023-05-22T09:31:13.868Z,2.20
2023-05-22T09:33:47.194Z,2.08
2023-05-22T09:36:18.842Z,1.98
2023-05-22T09:38:48.492Z,1.88
2023-05-22T09:41:23.865Z,1.80
2023-05-22T09:43:53.307Z,2.88
2023-05-22T09:46:22.865Z,2.25
2023-05-22T09:50:31.869Z,2.15
2023-05-22T09:53:06.163Z,2.50
2023-05-22T09:55:37.497Z,1.80
2023-05-22T09:58:09.614Z,1.53
2023-05-22T10:00:40.199Z,1.70
2023-05-22T10:03:16.170Z,2.47
2023-05-22T10:05:54.249Z,1.38
2023-05-22T10:08:29.701Z,1.80
2023-05-22T10:10:59.675Z,1.42
2023-05-22T10:13:30.210Z,1.73
2023-05-22T10:16:00.970Z,1.40
2023-05-22T10:18:31.632Z,1.67
2023-05-22T10:21:03.973Z,1.30
2023-05-22T10:26:03.163Z,1.25
2023-05-22T10:28:42.342Z,2.67
2023-05-22T10:31:24.727Z,2.65
2023-05-22T10:36:45.447Z,2.50
2023-05-22T10:39:39.165Z,2.40
2023-05-22T10:42:14.622Z,2.53
2023-05-22T10:44:44.428Z,3.00
2023-05-22T10:47:14.150Z,2.88
2023-05-22T10:49:47.194Z,3.28
2023-05-22T10:52:22.233Z,2.45
2023-05-22T10:54:53.872Z,2.58
2023-05-22T10:57:27.449Z,2.70
2023-05-22T11:00:10.702Z,2.63
2023-05-22T11:02:46.414Z,2.70
2023-05-22T11:05:37.491Z,3.00
2023-05-22T11:08:37.459Z,3.22
2023-05-22T11:11:16.430Z,2.97
2023-05-22T11:13:46.284Z,3.65
2023-05-22T11:16:18.422Z,3.50
2023-05-22T11:18:48.349Z,3.60
2023-05-22T11:21:18.205Z,3.13
2023-05-22T11:23:50.152Z,4.03
2023-05-22T11:26:27.876Z,6.28
2023-05-22T11:28:59.028Z,4.05
2023-05-22T11:31:28.970Z,3.33
2023-05-22T11:33:58.751Z,4.00
2023-05-22T11:36:30.703Z,4.18
2023-05-22T11:39:02.170Z,3.40
2023-05-22T11:41:36.176Z,3.80
2023-05-22T11:44:05.745Z,3.42
2023-05-22T11:46:35.501Z,3.40
2023-05-22T11:49:05.499Z,4.07
2023-05-22T11:51:35.136Z,4.13
2023-05-22T11:54:08.281Z,4.18
2023-05-22T11:56:37.914Z,4.43
2023-05-22T11:59:07.794Z,4.10
2023-05-22T12:01:37.701Z,3.90
2023-05-22T12:04:07.672Z,3.83
2023-05-22T12:06:37.525Z,4.25
2023-05-22T12:10:39.608Z,3.80
2023-05-22T12:13:10.037Z,5.22
2023-05-22T12:15:40.276Z,3.58
2023-05-22T12:18:12.027Z,3.40
2023-05-22T12:20:45.084Z,3.45
2023-05-22T12:23:16.243Z,3.78
2023-05-22T12:25:47.271Z,4.10
2023-05-22T12:28:16.917Z,3.45
2023-05-22T12:30:46.689Z,3.75
2023-05-22T12:33:16.578Z,3.40
2023-05-22T12:35:46.305Z,3.63
2023-05-22T12:38:16.029Z,4.00
2023-05-22T12:40:47.316Z,3.65
2023-05-22T12:43:16.960Z,4.10
2023-05-22T12:45:46.627Z,3.90
2023-05-22T12:50:31.816Z,3.33
2023-05-22T12:53:01.435Z,4.80
2023-05-22T12:55:31.368Z,3.85
2023-05-22T12:58:01.067Z,3.00
2023-05-22T13:00:30.741Z,4.28
2023-05-22T13:03:00.837Z,3.78
2023-05-22T13:05:32.063Z,4.35
2023-05-22T13:08:01.886Z,6.00
2023-05-22T13:10:31.580Z,3.70
2023-05-22T13:13:01.219Z,3.42
2023-05-22T13:15:31.702Z,3.55
2023-05-22T13:18:01.738Z,3.70
2023-05-22T13:20:33.011Z,3.75
2023-05-22T13:23:02.715Z,3.85
2023-05-22T13:25:32.371Z,3.80
2023-05-22T13:28:02.929Z,3.63
2023-05-22T13:30:32.655Z,3.70
2023-05-22T13:33:02.400Z,4.78
2023-05-22T13:35:33.700Z,3.30
2023-05-22T13:38:03.526Z,3.58
2023-05-22T13:40:33.157Z,4.03
2023-05-22T13:43:02.828Z,5.13
2023-05-22T13:45:32.664Z,4.78
2023-05-22T13:48:02.600Z,5.45
2023-05-22T13:50:33.823Z,4.70
2023-05-22T13:53:03.406Z,5.03
2023-05-22T13:55:32.989Z,5.05
2023-05-22T13:58:02.565Z,4.43
2023-05-22T14:00:32.380Z,5.30
2023-05-22T14:03:01.993Z,5.22
2023-05-22T14:05:33.039Z,4.22
2023-05-22T14:08:02.562Z,4.90
2023-05-22T14:10:32.148Z,4.50
2023-05-22T14:13:01.815Z,4.13
2023-05-22T14:15:31.606Z,4.40
2023-05-22T14:18:01.304Z,3.45
2023-05-22T14:20:32.534Z,3.15
2023-05-22T14:23:02.470Z,3.88
2023-05-22T14:25:32.162Z,3.55
2023-05-22T14:28:02.249Z,4.40
2023-05-22T14:30:31.962Z,3.88
2023-05-22T14:33:01.582Z,4.45
2023-05-22T14:35:32.719Z,4.15
2023-05-22T14:38:02.855Z,3.95
2023-05-22T14:40:32.569Z,4.82
2023-05-22T14:43:02.253Z,3.20
2023-05-22T14:45:31.978Z,2.55
2023-05-22T14:48:01.613Z,2.15
2023-05-22T14:50:32.693Z,1.80
2023-05-22T14:53:02.489Z,1.30
2023-05-22T14:55:32.189Z,1.55
2023-05-22T14:58:02.033Z,1.27
2023-05-22T15:00:31.709Z,0.90
2023-05-22T15:03:03.104Z,0.60
2023-05-22T15:05:34.419Z,0.90
2023-05-22T15:08:04.069Z,0.75
2023-05-22T15:10:33.753Z,0.65
2023-05-22T15:13:03.305Z,0.60
2023-05-22T15:15:33.376Z,0.40
2023-05-22T15:18:05.186Z,0.70
2023-05-22T15:20:36.511Z,0.70
2023-05-22T15:23:06.933Z,1.42
2023-05-22T15:25:36.922Z,0.88
2023-05-22T15:28:08.160Z,0.93
2023-05-22T15:30:39.239Z,1.00
2023-05-22T15:33:09.270Z,1.33
2023-05-22T15:35:41.179Z,1.15
2023-05-22T15:38:13.543Z,0.80
2023-05-22T15:40:45.851Z,1.10
2023-05-22T15:43:15.481Z,0.98
2023-05-22T15:45:50.281Z,1.40
2023-05-22T15:50:31.396Z,1.52
2023-05-22T15:53:01.248Z,1.17
2023-05-22T15:55:31.242Z,1.60
2023-05-22T15:58:01.041Z,1.25
2023-05-22T16:00:31.249Z,1.63
2023-05-22T16:03:00.993Z,1.90
2023-05-22T16:05:35.123Z,1.40
2023-05-22T16:08:04.606Z,1.20
2023-05-22T16:10:34.036Z,1.05
2023-05-22T16:13:05.483Z,1.08
2023-05-22T16:15:35.243Z,0.98
2023-05-22T16:18:05.431Z,1.55
2023-05-22T16:20:36.871Z,1.67
2023-05-22T16:23:06.388Z,1.90
2023-05-22T16:25:35.938Z,2.60
2023-05-22T16:28:06.301Z,3.20
2023-05-22T16:30:35.913Z,3.25
2023-05-22T16:33:05.501Z,3.83
2023-05-22T16:35:36.569Z,3.17
2023-05-22T16:38:07.283Z,3.53
2023-05-22T16:40:38.299Z,4.03
2023-05-22T16:43:10.063Z,3.55
2023-05-22T16:45:39.792Z,3.50
2023-05-22T16:48:09.571Z,3.30
2023-05-22T16:50:42.673Z,3.65
2023-05-22T16:53:12.122Z,3.50
2023-05-22T16:55:42.139Z,3.00
2023-05-22T16:58:13.744Z,3.20
2023-05-22T17:00:43.832Z,3.08
2023-05-22T17:03:14.385Z,3.45
2023-05-22T17:05:47.599Z,3.17
2023-05-22T17:08:17.720Z,3.53
2023-05-22T17:10:47.400Z,3.17
2023-05-22T17:13:21.217Z,4.47
2023-05-22T17:15:51.089Z,5.45
2023-05-22T17:18:21.568Z,6.40
2023-05-22T17:20:54.291Z,5.13
2023-05-22T17:23:24.403Z,4.95
2023-05-22T17:25:55.442Z,7.40
2023-05-22T17:28:24.905Z,8.75
2023-05-22T17:30:54.406Z,7.32
2023-05-22T17:33:24.189Z,5.43
2023-05-22T17:35:55.105Z,5.03
2023-05-22T17:38:24.786Z,5.35
2023-05-22T17:40:54.752Z,4.90
2023-05-22T17:43:24.530Z,5.68
2023-05-22T17:45:54.615Z,6.10
2023-05-22T17:48:27.556Z,7.22
2023-05-22T17:50:59.719Z,6.13
2023-05-22T17:53:34.596Z,6.90
2023-05-22T17:56:06.051Z,5.97
2023-05-22T17:58:35.660Z,4.35
2023-05-22T18:01:05.215Z,4.05
2023-05-22T18:03:35.859Z,3.63
2023-05-22T18:06:08.001Z,3.67
2023-05-22T18:08:37.692Z,3.63
2023-05-22T18:11:07.521Z,2.97
2023-05-22T18:13:37.250Z,3.78
2023-05-22T18:16:07.266Z,3.40
2023-05-22T18:18:36.982Z,3.28
2023-05-22T18:21:08.705Z,2.95
2023-05-22T18:23:38.148Z,2.07
2023-05-22T18:26:10.004Z,2.45
2023-05-22T18:28:39.691Z,3.40
2023-05-22T18:31:09.224Z,2.70
2023-05-22T18:33:39.647Z,2.90
2023-05-22T18:36:10.790Z,3.30
2023-05-22T18:38:40.459Z,4.28
2023-05-22T18:41:10.374Z,4.07
2023-05-22T18:43:39.978Z,3.83
2023-05-22T18:46:09.763Z,3.13
2023-05-22T18:50:31.247Z,2.78
2023-05-22T18:53:00.749Z,2.92
2023-05-22T18:55:30.251Z,3.08
2023-05-22T18:57:59.630Z,3.05
2023-05-22T19:00:29.295Z,3.83
2023-05-22T19:02:59.519Z,2.33
2023-05-22T19:05:30.717Z,2.65
2023-05-22T19:08:00.239Z,2.05
2023-05-22T19:10:29.817Z,2.20
2023-05-22T19:12:59.230Z,3.20
2023-05-22T19:15:28.902Z,3.65
2023-05-22T19:17:58.441Z,3.58
2023-05-22T19:20:30.632Z,3.17
2023-05-22T19:23:00.220Z,2.72
2023-05-22T19:25:29.614Z,2.70
2023-05-22T19:27:59.121Z,1.95
2023-05-22T19:30:28.708Z,2.17
2023-05-22T19:32:58.327Z,2.30
2023-05-22T19:35:27.847Z,2.05
2023-05-22T19:37:58.849Z,1.75
2023-05-22T19:40:28.369Z,1.90
2023-05-22T19:42:58.209Z,2.00
2023-05-22T19:45:27.712Z,2.97
2023-05-22T19:47:58.123Z,2.55
2023-05-22T19:50:27.687Z,2.15
2023-05-22T19:52:58.847Z,2.67
2023-05-22T19:55:28.388Z,2.75
2023-05-22T19:57:57.991Z,3.25
2023-05-22T20:00:29.545Z,4.72
2023-05-22T20:02:59.137Z,4.35
2023-05-22T20:05:28.771Z,3.55
2023-05-22T20:08:00.666Z,3.05
2023-05-22T20:10:31.639Z,2.70
2023-05-22T20:13:01.406Z,3.10
2023-05-22T20:15:31.486Z,2.92
2023-05-22T20:18:02.784Z,2.95
2023-05-22T20:20:32.371Z,4.00
2023-05-22T20:23:03.417Z,3.30
2023-05-22T20:25:34.271Z,3.25
2023-05-22T20:28:06.068Z,3.10
2023-05-22T20:30:35.708Z,2.75
2023-05-22T20:33:05.504Z,3.80
2023-05-22T20:35:35.363Z,3.13
2023-05-22T20:38:09.272Z,3.67
2023-05-22T20:40:39.262Z,4.32
2023-05-22T20:43:09.269Z,3.38
2023-05-22T20:45:39.081Z,3.83
2023-05-22T20:48:08.756Z,3.97
2023-05-22T20:50:39.816Z,3.85
2023-05-22T20:53:11.066Z,3.92
2023-05-22T20:55:40.873Z,6.38
2023-05-22T20:58:10.807Z,6.28
2023-05-22T21:00:42.299Z,4.15
2023-05-22T21:03:11.990Z,3.38
2023-05-22T21:05:41.827Z,4.22
2023-05-22T21:08:13.054Z,4.47
2023-05-22T21:10:42.640Z,4.60
2023-05-22T21:13:12.159Z,3.83
2023-05-22T21:15:41.689Z,3.88
2023-05-22T21:18:12.367Z,3.10
2023-05-22T21:20:42.303Z,2.80
2023-05-22T21:23:14.047Z,3.15
2023-05-22T21:25:43.599Z,3.10
2023-05-22T21:28:13.144Z,3.70
2023-05-22T21:30:42.794Z,4.40
2023-05-22T21:33:12.469Z,3.40
2023-05-22T21:35:42.440Z,3.83
2023-05-22T21:38:13.317Z,3.58
2023-05-22T21:40:43.090Z,3.17
2023-05-22T21:43:12.702Z,3.42
2023-05-22T21:45:42.407Z,2.13
2023-05-22T21:50:31.815Z,4.43
2023-05-22T21:53:01.388Z,3.90
2023-05-22T21:55:30.823Z,3.53
2023-05-22T21:58:00.406Z,4.05
2023-05-22T22:00:30.419Z,5.30
2023-05-22T22:02:59.974Z,4.75
2023-05-22T22:05:31.024Z,4.07
2023-05-22T22:08:00.454Z,2.97
2023-05-22T22:10:29.880Z,2.00
2023-05-22T22:12:59.272Z,3.38
2023-05-22T22:15:28.893Z,3.25
2023-05-22T22:18:02.632Z,2.55
2023-05-22T22:20:44.355Z,3.25
2023-05-22T22:23:15.438Z,2.55
2023-05-22T22:25:44.896Z,2.35
2023-05-22T22:28:14.464Z,2.33
2023-05-22T22:30:44.126Z,2.95
2023-05-22T22:33:14.226Z,2.55
2023-05-22T22:35:46.236Z,2.50
2023-05-22T22:38:15.835Z,3.03
2023-05-22T22:40:45.450Z,2.85
2023-05-22T22:43:15.208Z,1.73
2023-05-22T22:45:44.903Z,2.38
2023-05-22T22:48:14.509Z,2.15
2023-05-22T22:50:47.159Z,2.10
2023-05-22T22:55:46.270Z,2.30
2023-05-22T22:58:15.887Z,2.22
2023-05-22T23:00:45.339Z,1.67
2023-05-22T23:03:14.882Z,1.70
2023-05-22T23:05:45.970Z,2.20
2023-05-22T23:08:15.512Z,2.80
2023-05-22T23:10:45.132Z,2.63
2023-05-22T23:13:14.707Z,2.83
2023-05-22T23:15:44.470Z,2.10
2023-05-22T23:18:14.634Z,2.35
2023-05-22T23:20:45.696Z,2.85
2023-05-22T23:23:15.311Z,2.67
2023-05-22T23:25:44.786Z,2.40
2023-05-22T23:28:14.284Z,2.45
2023-05-22T23:30:43.759Z,1.98
2023-05-22T23:33:13.288Z,1.95
2023-05-22T23:35:43.349Z,2.42
2023-05-22T23:38:14.480Z,2.40
2023-05-22T23:40:44.198Z,2.05
2023-05-22T23:43:13.783Z,2.50
2023-05-22T23:45:43.389Z,2.42
2023-05-22T23:48:12.993Z,1.77
2023-05-22T23:50:42.515Z,1.70
2023-05-22T23:53:13.436Z,2.30
2023-05-22T23:55:43.069Z,1.77
2023-05-22T23:58:12.813Z,2.20
